首页
METAR-TAF:

METAR-TAF

机场 :

Olivia Regional Airport

Olivia, 明尼蘇達州, 美国

纬度: 44-46-43N, 经度: 095-01-58W, 海拔: 328米

当前天气观测

该预报发布于23分钟前的18:55 UTC
风速17节,风向,有时为26节阵风
温度 15°C
湿度 44%
气压 1013 hPa
能見度: 16.1公里
散云层高于10000英尺
散云层高于12000英尺

METAR: KOVL 211855Z AUTO 09017G26KT 10SM SCT100 SCT120 15/03 A2991 RMK AO2

时间: 14:18 (19:18 UTC)


TAF: 丢失

超过4000个机场的气象观测和天气预报(METAR&TAF报告)。

可查询的气象台以黄色和红色小点在地图上表示。

将鼠标移到小点上方,可查看气象台名称。

然后点击查看天气观测和预报。

如需切换地图:点击带黑十字的绿色按钮放大地图;点击带横线的绿色按钮缩小地图;或者点击绿色箭头查看邻近地区的地图。


METAR-TAF: